createdAt,value
2018-03-31T00:00:58.372Z,3.48
2018-03-31T00:02:08.077Z,3.45
2018-03-31T00:03:18.054Z,3.41
2018-03-31T00:04:28.046Z,3.41
2018-03-31T00:05:38.003Z,3.33
2018-03-31T00:06:47.720Z,3.36
2018-03-31T00:07:57.686Z,3.43
2018-03-31T00:09:07.664Z,3.34
2018-03-31T00:10:17.637Z,3.36
2018-03-31T00:11:27.089Z,3.31
2018-03-31T00:12:37.044Z,3.29
2018-03-31T00:13:46.745Z,3.36
2018-03-31T00:14:56.442Z,3.27
2018-03-31T00:16:06.139Z,3.21
2018-03-31T00:17:15.844Z,3.24
2018-03-31T00:18:25.286Z,3.34
2018-03-31T00:19:34.726Z,3.3
2018-03-31T00:20:44.680Z,3.19
2018-03-31T00:21:54.376Z,3.19
2018-03-31T00:23:03.822Z,3.18
2018-03-31T00:24:13.519Z,3.27
2018-03-31T00:25:23.475Z,3.22
2018-03-31T00:26:33.470Z,3.22
2018-03-31T00:27:43.179Z,3.11
2018-03-31T00:28:53.141Z,3.18
2018-03-31T00:30:03.101Z,3.03
2018-03-31T00:31:13.089Z,3.12
2018-03-31T00:32:22.793Z,3.12
2018-03-31T00:33:32.261Z,3.08
2018-03-31T00:34:41.980Z,3.09
2018-03-31T00:35:51.687Z,3.09
2018-03-31T00:37:01.661Z,3.11
2018-03-31T00:38:11.104Z,3.08
2018-03-31T00:39:21.068Z,3.06
2018-03-31T00:40:31.048Z,3.08
2018-03-31T00:41:40.758Z,3.05
2018-03-31T00:42:50.208Z,3.01
2018-03-31T00:43:59.906Z,3.03
2018-03-31T00:45:09.610Z,3.06
2018-03-31T00:46:19.313Z,2.98
2018-03-31T00:47:28.500Z,2.98
2018-03-31T00:48:37.951Z,2.98
2018-03-31T00:49:47.396Z,2.95
2018-03-31T00:50:57.369Z,2.95
2018-03-31T00:52:07.062Z,2.97
2018-03-31T00:53:17.043Z,2.97
2018-03-31T00:54:26.751Z,2.85
2018-03-31T00:55:36.187Z,2.91
2018-03-31T00:56:46.141Z,2.8
2018-03-31T00:57:55.583Z,2.8
2018-03-31T00:59:05.293Z,2.75
2018-03-31T01:00:14.489Z,2.75
2018-03-31T01:01:24.189Z,2.77
2018-03-31T01:02:33.623Z,2.77
2018-03-31T01:03:43.316Z,2.76
2018-03-31T01:04:53.012Z,2.79
2018-03-31T01:06:02.722Z,2.72
2018-03-31T01:07:11.901Z,2.69
2018-03-31T01:08:21.603Z,2.65
2018-03-31T01:09:31.610Z,2.68
2018-03-31T01:10:41.346Z,2.61
2018-03-31T01:11:51.315Z,2.61
2018-03-31T01:13:01.304Z,2.57
2018-03-31T01:14:10.767Z,2.61
2018-03-31T01:15:19.956Z,2.59
2018-03-31T01:16:29.662Z,2.59
2018-03-31T01:17:39.364Z,2.58
2018-03-31T01:18:49.334Z,2.44
2018-03-31T01:19:58.773Z,2.51
2018-03-31T01:21:08.743Z,2.51
2018-03-31T01:22:18.180Z,2.59
2018-03-31T01:23:28.143Z,2.52
2018-03-31T01:24:38.114Z,2.46
2018-03-31T01:25:48.070Z,2.44
2018-03-31T01:26:58.042Z,2.44
2018-03-31T01:28:07.483Z,2.4
2018-03-31T01:29:17.173Z,2.44
2018-03-31T01:30:27.132Z,2.41
2018-03-31T01:31:37.107Z,2.39
2018-03-31T01:32:47.057Z,2.4
2018-03-31T01:33:56.495Z,2.4
2018-03-31T01:35:05.926Z,2.26
2018-03-31T01:36:15.882Z,2.3
2018-03-31T01:37:25.846Z,2.3
2018-03-31T01:38:35.821Z,2.32
2018-03-31T01:39:45.782Z,2.41
2018-03-31T01:40:55.737Z,2.32
2018-03-31T01:42:05.192Z,2.34
2018-03-31T01:43:14.427Z,2.3
2018-03-31T01:44:24.378Z,2.25
2018-03-31T01:45:33.816Z,2.3
2018-03-31T01:46:43.246Z,2.28
2018-03-31T01:47:52.945Z,2.3
2018-03-31T01:49:02.899Z,2.26
2018-03-31T01:50:12.609Z,2.26
2018-03-31T01:51:22.595Z,2.3
2018-03-31T01:52:31.532Z,2.28
2018-03-31T01:53:41.520Z,2.26
2018-03-31T01:54:50.954Z,2.23
2018-03-31T01:56:00.649Z,2.21
2018-03-31T01:57:10.648Z,2.15
2018-03-31T01:58:20.368Z,2.1
2018-03-31T01:59:29.547Z,2.16
2018-03-31T02:00:39.254Z,2.14
2018-03-31T02:01:48.691Z,2.12
2018-03-31T02:02:58.649Z,2.19
2018-03-31T02:04:08.643Z,2.18
2018-03-31T02:05:17.831Z,2.16
2018-03-31T02:06:27.019Z,2.14
2018-03-31T02:07:36.768Z,2.08
2018-03-31T02:08:46.489Z,2.07
2018-03-31T02:09:56.192Z,2.05
2018-03-31T02:11:06.160Z,2.08
2018-03-31T02:12:15.874Z,2.07
2018-03-31T02:13:25.061Z,2.04
2018-03-31T02:14:34.510Z,2.08
2018-03-31T02:15:44.225Z,2.03
2018-03-31T02:16:54.186Z,2.04
2018-03-31T02:18:03.894Z,2.03
2018-03-31T02:19:13.853Z,2.04
2018-03-31T02:20:23.570Z,2.07
2018-03-31T02:21:33.525Z,2.07
2018-03-31T02:22:43.475Z,2.14
2018-03-31T02:23:53.430Z,1.89
2018-03-31T02:25:03.136Z,1.95
2018-03-31T02:26:12.847Z,2.1
2018-03-31T02:27:22.327Z,2
2018-03-31T02:28:32.026Z,2.01
2018-03-31T02:29:41.717Z,2.01
2018-03-31T02:30:51.414Z,2.01
2018-03-31T02:32:00.885Z,1.88
2018-03-31T02:33:10.606Z,1.97
2018-03-31T02:34:20.315Z,1.86
2018-03-31T02:35:30.293Z,1.97
2018-03-31T02:36:40.278Z,1.98
2018-03-31T02:37:49.480Z,1.93
2018-03-31T02:38:59.160Z,1.93
2018-03-31T02:40:09.158Z,1.89
2018-03-31T02:41:19.131Z,1.98
2018-03-31T02:42:28.839Z,1.95
2018-03-31T02:43:38.535Z,1.95
2018-03-31T02:44:47.977Z,1.93
2018-03-31T02:45:57.708Z,1.93
2018-03-31T02:47:07.690Z,1.95
2018-03-31T02:48:17.406Z,1.92
2018-03-31T02:49:27.134Z,1.86
2018-03-31T02:50:36.586Z,1.89
2018-03-31T02:51:46.565Z,1.79
2018-03-31T02:52:56.012Z,1.93
2018-03-31T02:54:05.731Z,1.84
2018-03-31T02:55:15.438Z,1.86
2018-03-31T02:56:25.423Z,1.84
2018-03-31T02:57:34.878Z,1.78
2018-03-31T02:58:44.923Z,1.84
2018-03-31T02:59:54.641Z,1.81
2018-03-31T03:01:04.615Z,1.79
2018-03-31T03:02:14.103Z,1.85
2018-03-31T03:03:23.870Z,1.81
2018-03-31T03:04:33.583Z,1.85
2018-03-31T03:05:43.291Z,1.71
2018-03-31T03:06:52.737Z,1.82
2018-03-31T03:08:02.442Z,1.76
2018-03-31T03:09:12.417Z,1.74
2018-03-31T03:10:22.114Z,1.79
2018-03-31T03:11:32.083Z,1.76
2018-03-31T03:12:41.791Z,1.79
2018-03-31T03:13:51.750Z,1.81
2018-03-31T03:15:01.441Z,1.74
2018-03-31T03:16:10.873Z,1.82
2018-03-31T03:17:20.835Z,1.81
2018-03-31T03:18:30.522Z,1.75
2018-03-31T03:19:40.233Z,1.76
2018-03-31T03:20:49.930Z,1.67
2018-03-31T03:21:59.624Z,1.78
2018-03-31T03:23:09.580Z,1.78
2018-03-31T03:24:19.272Z,1.74
2018-03-31T03:25:28.978Z,1.75
2018-03-31T03:26:38.417Z,1.7
2018-03-31T03:27:47.850Z,1.7
2018-03-31T03:28:56.768Z,1.75
2018-03-31T03:30:06.245Z,1.64
2018-03-31T03:31:16.228Z,1.63
2018-03-31T03:32:26.197Z,1.64
2018-03-31T03:33:35.382Z,1.61
2018-03-31T03:34:45.077Z,1.63
2018-03-31T03:35:54.767Z,1.61
2018-03-31T03:37:04.467Z,1.63
2018-03-31T03:38:14.424Z,1.6
2018-03-31T03:39:24.122Z,1.63
2018-03-31T03:40:34.091Z,1.64
2018-03-31T03:41:43.794Z,1.64
2018-03-31T03:42:53.493Z,1.76
2018-03-31T03:44:02.932Z,1.76
2018-03-31T03:45:12.897Z,1.76
2018-03-31T03:46:22.599Z,1.7
2018-03-31T03:47:32.037Z,1.78
2018-03-31T03:48:41.259Z,1.78
2018-03-31T03:49:51.224Z,1.78
2018-03-31T03:51:01.192Z,1.78
2018-03-31T03:52:10.888Z,1.79
2018-03-31T03:53:20.578Z,1.84
2018-03-31T03:54:30.270Z,1.76
2018-03-31T03:55:39.976Z,1.78
2018-03-31T03:56:49.663Z,1.86
2018-03-31T03:57:59.624Z,1.84
2018-03-31T03:59:09.076Z,1.82
2018-03-31T04:00:18.781Z,1.84
2018-03-31T04:01:28.473Z,1.88
2018-03-31T04:02:38.437Z,1.89
2018-03-31T04:03:47.874Z,1.89
2018-03-31T04:04:57.845Z,1.93
2018-03-31T04:06:07.810Z,1.93
2018-03-31T04:07:17.810Z,1.93
2018-03-31T04:08:27.515Z,2
2018-03-31T04:09:37.470Z,2.03
2018-03-31T04:10:47.169Z,1.97
2018-03-31T04:11:56.869Z,1.89
2018-03-31T04:13:06.832Z,2.05
2018-03-31T04:14:16.583Z,1.89
2018-03-31T04:15:26.535Z,2
2018-03-31T04:16:36.488Z,2.12
2018-03-31T04:17:46.187Z,1.98
2018-03-31T04:18:56.156Z,2.04
2018-03-31T04:20:05.859Z,2.1
2018-03-31T04:21:15.554Z,2.03
2018-03-31T04:22:25.257Z,2.12
2018-03-31T04:23:35.230Z,2.07
2018-03-31T04:24:44.411Z,2.18
2018-03-31T04:25:54.367Z,2.19
2018-03-31T04:27:04.323Z,2.1
2018-03-31T04:28:14.022Z,2.18
2018-03-31T04:29:23.468Z,2.19
2018-03-31T04:30:32.899Z,2.08
2018-03-31T04:31:42.592Z,2.1
2018-03-31T04:32:52.294Z,2.22
2018-03-31T04:34:01.984Z,2.18
2018-03-31T04:35:11.425Z,2.28
2018-03-31T04:36:21.387Z,2.21
2018-03-31T04:37:31.342Z,2.22
2018-03-31T04:38:41.292Z,2.23
2018-03-31T04:39:51.260Z,2.32
2018-03-31T04:41:01.204Z,2.34
2018-03-31T04:42:10.909Z,2.23
2018-03-31T04:43:20.869Z,2.28
2018-03-31T04:44:30.045Z,2.25
2018-03-31T04:45:39.743Z,2.23
2018-03-31T04:46:49.444Z,2.28
2018-03-31T04:47:59.412Z,2.3
2018-03-31T04:49:09.115Z,2.22
2018-03-31T04:50:18.808Z,2.22
2018-03-31T04:51:28.770Z,2.32
2018-03-31T04:52:38.212Z,2.28
2018-03-31T04:53:47.915Z,2.3
2018-03-31T04:54:57.614Z,2.28
2018-03-31T04:56:07.319Z,2.19
2018-03-31T04:57:16.768Z,2.15
2018-03-31T04:58:26.213Z,2.15
2018-03-31T04:59:35.645Z,2.14
2018-03-31T05:00:45.080Z,2.14
2018-03-31T05:01:55.032Z,2.08
2018-03-31T05:03:04.998Z,2.15
2018-03-31T05:04:14.437Z,2.15
2018-03-31T05:05:24.137Z,2.21
2018-03-31T05:06:33.570Z,2.14
2018-03-31T05:07:43.265Z,2.18
2018-03-31T05:08:53.017Z,2.1
2018-03-31T05:10:02.972Z,2.12
2018-03-31T05:11:12.421Z,2.3
2018-03-31T05:12:21.889Z,2.32
2018-03-31T05:13:31.848Z,2.19
2018-03-31T05:14:41.553Z,2.3
2018-03-31T05:15:51.517Z,2.28
2018-03-31T05:17:01.483Z,2.3
2018-03-31T05:18:10.938Z,2.26
2018-03-31T05:19:20.648Z,2.28
2018-03-31T05:20:29.823Z,2.37
2018-03-31T05:21:39.520Z,2.32
2018-03-31T05:22:49.476Z,2.32
2018-03-31T05:23:59.451Z,2.28
2018-03-31T05:25:09.419Z,2.33
2018-03-31T05:26:19.377Z,2.3
2018-03-31T05:27:29.189Z,2.37
2018-03-31T05:28:38.623Z,2.43
2018-03-31T05:29:48.071Z,2.3
2018-03-31T05:30:57.775Z,2.36
2018-03-31T05:32:07.477Z,2.28
2018-03-31T05:33:17.449Z,2.3
2018-03-31T05:34:26.893Z,2.34
2018-03-31T05:35:36.878Z,2.34
2018-03-31T05:36:46.840Z,2.33
2018-03-31T05:37:56.803Z,2.4
2018-03-31T05:39:05.997Z,2.37
2018-03-31T05:40:15.961Z,2.41
2018-03-31T05:41:25.653Z,2.4
2018-03-31T05:42:35.087Z,2.41
2018-03-31T05:43:44.538Z,2.4
2018-03-31T05:44:54.511Z,2.39
2018-03-31T05:46:04.208Z,2.4
2018-03-31T05:47:13.909Z,2.51
2018-03-31T05:48:23.888Z,2.54
2018-03-31T05:49:33.842Z,2.5
2018-03-31T05:50:43.856Z,2.55
2018-03-31T05:51:53.339Z,2.44
2018-03-31T05:53:03.042Z,2.54
2018-03-31T05:54:13.004Z,2.58
2018-03-31T05:55:22.704Z,2.59
2018-03-31T05:56:32.664Z,2.58
2018-03-31T05:57:42.362Z,2.7
2018-03-31T05:58:52.317Z,2.65
2018-03-31T06:00:02.035Z,2.65
2018-03-31T06:01:11.472Z,2.73
2018-03-31T06:02:20.933Z,2.69
2018-03-31T06:03:30.186Z,2.79
2018-03-31T06:04:39.343Z,2.79
2018-03-31T06:05:49.036Z,2.79
2018-03-31T06:06:58.476Z,2.76
2018-03-31T06:08:08.181Z,2.65
2018-03-31T06:09:18.155Z,2.68
2018-03-31T06:10:28.120Z,2.7
2018-03-31T06:11:37.299Z,2.73
2018-03-31T06:12:46.992Z,2.82
2018-03-31T06:13:56.949Z,2.72
2018-03-31T06:15:06.983Z,2.82
2018-03-31T06:16:16.430Z,2.77
2018-03-31T06:17:26.119Z,2.8
2018-03-31T06:18:35.840Z,2.79
2018-03-31T06:19:45.550Z,2.75
2018-03-31T06:20:55.250Z,2.73
2018-03-31T06:22:04.703Z,2.77
2018-03-31T06:23:14.402Z,2.79
2018-03-31T06:24:24.122Z,2.88
2018-03-31T06:25:34.081Z,2.9
2018-03-31T06:26:43.792Z,2.9
2018-03-31T06:27:53.227Z,2.94
2018-03-31T06:29:02.694Z,2.9
2018-03-31T06:30:11.878Z,2.9
2018-03-31T06:31:21.845Z,2.85
2018-03-31T06:32:31.801Z,2.98
2018-03-31T06:33:41.773Z,2.91
2018-03-31T06:34:51.727Z,2.97
2018-03-31T06:36:01.692Z,2.91
2018-03-31T06:37:11.657Z,2.97
2018-03-31T06:38:21.613Z,3.05
2018-03-31T06:39:31.325Z,2.91
2018-03-31T06:40:41.044Z,3.01
2018-03-31T06:41:51.077Z,2.94
2018-03-31T06:43:00.777Z,2.94
2018-03-31T06:44:10.232Z,2.91
2018-03-31T06:45:20.196Z,2.95
2018-03-31T06:46:30.157Z,2.98
2018-03-31T06:47:39.859Z,2.95
2018-03-31T06:48:49.316Z,2.93
2018-03-31T06:49:59.038Z,3.06
2018-03-31T06:51:09.017Z,3.01
2018-03-31T06:52:18.728Z,3.09
2018-03-31T06:53:28.690Z,3.06
2018-03-31T06:54:38.184Z,3.12
2018-03-31T06:55:48.243Z,3.08
2018-03-31T06:56:57.433Z,3.09
2018-03-31T06:58:07.138Z,3.12
2018-03-31T06:59:16.850Z,3.11
2018-03-31T07:00:26.814Z,3.11
2018-03-31T07:01:36.511Z,3.16
2018-03-31T07:02:45.949Z,3.08
2018-03-31T07:03:55.671Z,3.08
2018-03-31T07:05:05.392Z,3.13
2018-03-31T07:06:15.358Z,3.12
2018-03-31T07:07:24.280Z,3.09
2018-03-31T07:08:34.244Z,3.08
2018-03-31T07:09:44.212Z,3.09
2018-03-31T07:10:53.674Z,3.09
2018-03-31T07:12:03.121Z,3.09
2018-03-31T07:13:12.566Z,3.18
2018-03-31T07:14:22.538Z,3.24
2018-03-31T07:15:32.696Z,3.19
2018-03-31T07:16:42.714Z,3.21
2018-03-31T07:17:52.688Z,3.16
2018-03-31T07:19:02.383Z,3.24
2018-03-31T07:20:11.824Z,3.21
2018-03-31T07:21:21.524Z,3.18
2018-03-31T07:22:30.709Z,3.21
2018-03-31T07:23:40.163Z,3.26
2018-03-31T07:24:49.604Z,3.19
2018-03-31T07:25:59.309Z,3.16
2018-03-31T07:27:09.019Z,3.19
2018-03-31T07:28:18.972Z,3.08
2018-03-31T07:29:28.681Z,3.12
2018-03-31T07:30:38.697Z,3.19
2018-03-31T07:31:48.148Z,3.19
2018-03-31T07:32:57.596Z,3.18
2018-03-31T07:34:07.314Z,3.19
2018-03-31T07:35:17.270Z,3.21
2018-03-31T07:36:26.783Z,3.29
2018-03-31T07:37:36.479Z,3.15
2018-03-31T07:38:45.922Z,3.21
2018-03-31T07:39:55.876Z,3.26
2018-03-31T07:41:05.852Z,3.33
2018-03-31T07:42:15.307Z,3.36
2018-03-31T07:43:25.013Z,3.29
2018-03-31T07:44:34.986Z,3.33
2018-03-31T07:45:44.941Z,3.29
2018-03-31T07:46:54.639Z,3.29
2018-03-31T07:48:04.339Z,3.36
2018-03-31T07:49:13.781Z,3.36
2018-03-31T07:50:23.745Z,3.37
2018-03-31T07:51:33.975Z,3.36
2018-03-31T07:52:43.692Z,3.37
2018-03-31T07:53:53.682Z,3.45
2018-03-31T07:55:03.389Z,3.41
2018-03-31T07:56:13.099Z,3.49
2018-03-31T07:57:22.821Z,3.53
2018-03-31T07:58:32.795Z,3.49
2018-03-31T07:59:41.981Z,3.46
2018-03-31T08:00:51.473Z,3.49
2018-03-31T08:02:00.680Z,3.48
2018-03-31T08:03:09.859Z,3.56
2018-03-31T08:04:19.558Z,3.58
2018-03-31T08:05:29.033Z,3.59
2018-03-31T08:06:38.473Z,3.67
2018-03-31T08:07:48.182Z,3.66
2018-03-31T08:08:58.146Z,3.67
2018-03-31T08:10:07.850Z,3.59
2018-03-31T08:11:17.306Z,3.7
2018-03-31T08:12:27.018Z,3.68
2018-03-31T08:13:36.995Z,3.68
2018-03-31T08:14:46.194Z,3.68
2018-03-31T08:15:56.176Z,3.81
2018-03-31T08:17:06.143Z,3.86
2018-03-31T08:18:15.846Z,3.96
2018-03-31T08:19:25.565Z,3.92
2018-03-31T08:20:35.529Z,3.85
2018-03-31T08:21:45.009Z,3.88
2018-03-31T08:22:54.725Z,3.96
2018-03-31T08:24:04.422Z,3.92
2018-03-31T08:25:13.866Z,3.92
2018-03-31T08:26:23.868Z,3.95
2018-03-31T08:27:33.589Z,3.96
2018-03-31T08:28:43.306Z,3.96
2018-03-31T08:29:53.002Z,4
2018-03-31T08:31:02.973Z,4.03
2018-03-31T08:32:12.733Z,4.16
2018-03-31T08:33:22.738Z,4
2018-03-31T08:34:32.702Z,4.07
2018-03-31T08:35:42.665Z,4.1
2018-03-31T08:36:52.638Z,4.22
2018-03-31T08:38:02.601Z,4.21
2018-03-31T08:39:12.572Z,4.25
2018-03-31T08:40:22.530Z,4.27
2018-03-31T08:41:32.259Z,4.25
2018-03-31T08:42:42.247Z,4.16
2018-03-31T08:43:52.230Z,4.24
2018-03-31T08:45:02.180Z,4.28
2018-03-31T08:46:11.884Z,4.24
2018-03-31T08:47:21.955Z,4.25
2018-03-31T08:48:31.941Z,4.27
2018-03-31T08:49:41.935Z,4.25
2018-03-31T08:50:51.902Z,4.27
2018-03-31T08:52:01.661Z,4.25
2018-03-31T08:53:11.371Z,4.2
2018-03-31T08:54:20.847Z,4.25
2018-03-31T08:55:30.643Z,4.24
2018-03-31T08:56:40.607Z,4.21
2018-03-31T08:57:50.576Z,4.16
2018-03-31T08:59:00.527Z,4.13
2018-03-31T09:00:10.231Z,4.2
2018-03-31T09:01:20.220Z,4.13
2018-03-31T09:02:29.931Z,4.06
2018-03-31T09:03:39.896Z,4.14
2018-03-31T09:04:49.608Z,4.18
2018-03-31T09:05:59.565Z,4.09
2018-03-31T09:07:09.272Z,4.09
2018-03-31T09:08:19.233Z,4.07
2018-03-31T09:09:28.998Z,4.13
2018-03-31T09:10:38.978Z,4.07
2018-03-31T09:11:48.941Z,4.03
2018-03-31T09:12:58.920Z,4.04
2018-03-31T09:14:08.885Z,4.09
2018-03-31T09:15:18.617Z,4.07
2018-03-31T09:16:28.071Z,3.96
2018-03-31T09:17:37.790Z,4.09
2018-03-31T09:18:47.522Z,4.16
2018-03-31T09:19:56.963Z,4.09
2018-03-31T09:21:06.937Z,4.12
2018-03-31T09:22:16.906Z,4.02
2018-03-31T09:23:26.607Z,4.04
2018-03-31T09:24:36.560Z,4.02
2018-03-31T09:25:49.536Z,4.02
2018-03-31T09:26:58.980Z,4.04
2018-03-31T09:28:08.673Z,4.13
2018-03-31T09:29:18.383Z,4.12
2018-03-31T09:30:28.349Z,4.18
2018-03-31T09:31:38.073Z,4.16
2018-03-31T09:32:48.042Z,4.16
2018-03-31T09:33:58.020Z,4.28
2018-03-31T09:35:07.739Z,4.25
2018-03-31T09:36:17.453Z,4.27
2018-03-31T09:37:27.176Z,4.28
2018-03-31T09:38:36.633Z,4.25
2018-03-31T09:39:46.348Z,4.22
2018-03-31T09:40:56.063Z,4.24
2018-03-31T09:42:06.045Z,4.32
2018-03-31T09:43:15.497Z,4.21
2018-03-31T09:44:25.477Z,4.2
2018-03-31T09:45:34.897Z,4.38
2018-03-31T09:46:44.947Z,4.36
2018-03-31T09:47:54.602Z,4.28
2018-03-31T09:49:04.318Z,4.36
2018-03-31T09:50:14.283Z,4.43
2018-03-31T09:51:23.997Z,4.39
2018-03-31T09:52:34.035Z,4.4
2018-03-31T09:53:43.764Z,4.36
2018-03-31T09:54:53.733Z,4.43
2018-03-31T09:56:03.430Z,4.31
2018-03-31T09:57:12.896Z,4.38
2018-03-31T09:58:22.881Z,4.34
2018-03-31T09:59:32.593Z,4.45
2018-03-31T10:00:42.288Z,4.32
2018-03-31T10:01:52.261Z,4.31
2018-03-31T10:03:01.991Z,4.3
2018-03-31T10:04:11.704Z,4.27
2018-03-31T10:05:21.688Z,4.36
2018-03-31T10:06:31.398Z,4.31
2018-03-31T10:07:41.143Z,4.31
2018-03-31T10:08:50.872Z,4.28
2018-03-31T10:10:00.583Z,4.25
2018-03-31T10:11:10.025Z,4.24
2018-03-31T10:12:20.000Z,4.22
2018-03-31T10:13:29.972Z,4.24
2018-03-31T10:14:39.944Z,4.22
2018-03-31T10:15:49.640Z,4.27
2018-03-31T10:16:58.831Z,4.28
2018-03-31T10:18:08.794Z,4.36
2018-03-31T10:19:18.488Z,4.22
2018-03-31T10:20:28.448Z,4.22
2018-03-31T10:21:37.900Z,4.24
2018-03-31T10:22:47.605Z,4.31
2018-03-31T10:23:57.059Z,4.38
2018-03-31T10:25:07.016Z,4.31
2018-03-31T10:26:16.460Z,4.43
2018-03-31T10:27:26.424Z,4.45
2018-03-31T10:28:36.123Z,4.39
2018-03-31T10:29:45.586Z,4.52
2018-03-31T10:30:55.569Z,4.48
2018-03-31T10:32:05.272Z,4.5
2018-03-31T10:33:14.986Z,4.53
2018-03-31T10:34:24.710Z,4.5
2018-03-31T10:35:34.194Z,4.61
2018-03-31T10:36:43.919Z,4.64
2018-03-31T10:37:54.022Z,4.7
2018-03-31T10:39:03.502Z,4.66
2018-03-31T10:40:13.464Z,4.79
2018-03-31T10:41:23.175Z,4.74
2018-03-31T10:42:33.141Z,4.87
2018-03-31T10:43:43.174Z,4.9
2018-03-31T10:44:52.874Z,4.98
2018-03-31T10:46:02.321Z,4.87
2018-03-31T10:47:12.046Z,4.86
2018-03-31T10:48:22.033Z,4.87
2018-03-31T10:49:31.488Z,4.9
2018-03-31T10:50:41.189Z,4.98
2018-03-31T10:51:51.178Z,4.98
2018-03-31T10:53:00.625Z,4.87
2018-03-31T10:54:10.608Z,5.05
2018-03-31T10:55:20.061Z,5.04
2018-03-31T10:56:29.510Z,5.02
2018-03-31T10:57:39.499Z,5
2018-03-31T10:58:49.220Z,5.01
2018-03-31T10:59:58.682Z,5.1
2018-03-31T11:01:08.139Z,5.02
2018-03-31T11:02:17.605Z,5.16
2018-03-31T11:03:27.584Z,5.13
2018-03-31T11:04:37.577Z,5.12
2018-03-31T11:05:47.026Z,5.16
2018-03-31T11:06:56.465Z,5.13
2018-03-31T11:08:05.909Z,5.18
2018-03-31T11:09:15.634Z,5.18
2018-03-31T11:10:25.342Z,5.19
2018-03-31T11:11:35.073Z,5.34
2018-03-31T11:12:44.254Z,5.38
2018-03-31T11:13:53.716Z,5.49
2018-03-31T11:15:03.416Z,5.43
2018-03-31T11:16:13.144Z,5.56
2018-03-31T11:17:22.578Z,5.58
2018-03-31T11:18:32.018Z,5.49
2018-03-31T11:19:41.284Z,5.55
2018-03-31T11:20:51.238Z,5.56
2018-03-31T11:22:01.011Z,5.44
2018-03-31T11:23:10.742Z,5.49
2018-03-31T11:24:19.913Z,5.55
2018-03-31T11:25:29.613Z,5.44
2018-03-31T11:26:39.587Z,5.43
2018-03-31T11:27:49.315Z,5.49
2018-03-31T11:28:59.282Z,5.4
2018-03-31T11:30:08.986Z,5.4
2018-03-31T11:31:18.709Z,5.4
2018-03-31T11:32:28.413Z,5.58
2018-03-31T11:33:38.122Z,5.52
2018-03-31T11:34:47.850Z,5.61
2018-03-31T11:35:57.818Z,5.52
2018-03-31T11:37:07.002Z,5.62
2018-03-31T11:38:16.725Z,5.67
2018-03-31T11:39:25.909Z,5.7
2018-03-31T11:40:35.105Z,5.7
2018-03-31T11:41:44.564Z,5.72
2018-03-31T11:42:54.524Z,5.8
2018-03-31T11:44:04.239Z,5.83
2018-03-31T11:45:13.683Z,5.84
2018-03-31T11:46:23.664Z,5.84
2018-03-31T11:47:33.377Z,5.87
2018-03-31T11:48:43.087Z,5.95
2018-03-31T11:49:52.804Z,5.95
2018-03-31T11:51:02.509Z,5.97
2018-03-31T11:52:12.485Z,6.02
2018-03-31T11:53:22.202Z,5.98
2018-03-31T11:54:31.925Z,5.95
2018-03-31T11:55:41.894Z,5.97
2018-03-31T11:56:51.861Z,5.95
2018-03-31T11:58:01.580Z,5.99
2018-03-31T11:59:11.552Z,6.1
2018-03-31T12:00:21.531Z,6.07
2018-03-31T12:01:31.243Z,6.09
2018-03-31T12:02:40.972Z,6.01
2018-03-31T12:03:50.948Z,6.09
2018-03-31T12:05:00.654Z,6.06
2018-03-31T12:06:10.621Z,6.15
2018-03-31T12:07:20.604Z,6.16
2018-03-31T12:08:30.304Z,6.19
2018-03-31T12:09:40.021Z,6.35
2018-03-31T12:10:49.723Z,6.29
2018-03-31T12:11:59.705Z,6.35
2018-03-31T12:13:09.432Z,6.44
2018-03-31T12:14:19.417Z,6.44
2018-03-31T12:15:29.228Z,6.43
2018-03-31T12:16:38.932Z,6.5
2018-03-31T12:17:48.641Z,6.56
2018-03-31T12:18:58.674Z,6.5
2018-03-31T12:20:08.388Z,6.38
2018-03-31T12:21:18.368Z,6.5
2018-03-31T12:22:27.806Z,6.52
2018-03-31T12:23:37.510Z,6.56
2018-03-31T12:24:47.492Z,6.56
2018-03-31T12:25:57.194Z,6.75
2018-03-31T12:27:07.221Z,6.68
2018-03-31T12:28:17.263Z,6.67
2018-03-31T12:29:26.711Z,6.71
2018-03-31T12:30:36.173Z,6.72
2018-03-31T12:31:45.684Z,6.68
2018-03-31T12:32:55.652Z,6.67
2018-03-31T12:34:05.651Z,6.77
2018-03-31T12:35:15.374Z,6.9
2018-03-31T12:36:25.351Z,6.87
2018-03-31T12:37:35.078Z,6.86
2018-03-31T12:38:44.835Z,6.83
2018-03-31T12:39:54.810Z,7
2018-03-31T12:41:04.793Z,6.95
2018-03-31T12:42:14.513Z,7.01
2018-03-31T12:43:24.491Z,6.89
2018-03-31T12:44:33.669Z,7
2018-03-31T12:45:43.389Z,7
2018-03-31T12:46:53.106Z,6.87
2018-03-31T12:48:03.070Z,6.93
2018-03-31T12:49:12.518Z,6.95
2018-03-31T12:50:22.498Z,7
2018-03-31T12:51:32.490Z,6.95
2018-03-31T12:52:42.194Z,6.97
2018-03-31T12:53:51.907Z,6.96
2018-03-31T12:55:01.359Z,7
2018-03-31T12:56:10.804Z,6.97
2018-03-31T12:57:20.787Z,6.97
2018-03-31T12:58:30.879Z,7.01
2018-03-31T12:59:40.815Z,6.96
2018-03-31T13:00:50.778Z,6.93
2018-03-31T13:02:00.500Z,6.87
2018-03-31T13:03:10.480Z,6.87
2018-03-31T13:04:20.228Z,6.9
2018-03-31T13:05:30.246Z,6.93
2018-03-31T13:06:39.991Z,6.97
2018-03-31T13:07:49.445Z,7
2018-03-31T13:08:59.403Z,6.93
2018-03-31T13:10:08.859Z,6.9
2018-03-31T13:11:18.323Z,6.87
2018-03-31T13:12:28.285Z,6.8
2018-03-31T13:13:38.265Z,6.93
2018-03-31T13:14:47.971Z,6.95
2018-03-31T13:15:57.164Z,6.9
2018-03-31T13:17:06.890Z,6.93
2018-03-31T13:18:16.601Z,7
2018-03-31T13:19:26.075Z,6.93
2018-03-31T13:20:36.060Z,6.86
2018-03-31T13:21:46.033Z,6.85
2018-03-31T13:22:55.902Z,6.8
2018-03-31T13:24:05.565Z,6.67
2018-03-31T13:25:15.270Z,6.68
2018-03-31T13:26:24.725Z,6.64
2018-03-31T13:27:34.442Z,6.59
2018-03-31T13:28:44.190Z,6.52
2018-03-31T13:29:53.646Z,6.59
2018-03-31T13:31:03.369Z,6.52
2018-03-31T13:32:13.338Z,6.52
2018-03-31T13:33:22.782Z,6.5
2018-03-31T13:34:32.475Z,6.52
2018-03-31T13:35:41.927Z,6.57
2018-03-31T13:36:51.900Z,6.52
2018-03-31T13:38:01.621Z,6.5
2018-03-31T13:39:11.583Z,6.53
2018-03-31T13:40:21.558Z,6.46
2018-03-31T13:41:31.265Z,6.46
2018-03-31T13:42:41.231Z,6.54
2018-03-31T13:43:51.196Z,6.46
2018-03-31T13:45:00.908Z,6.52
2018-03-31T13:46:10.895Z,6.39
2018-03-31T13:47:20.350Z,6.39
2018-03-31T13:48:30.316Z,6.38
2018-03-31T13:49:40.280Z,6.39
2018-03-31T13:50:50.020Z,6.35
2018-03-31T13:51:59.730Z,6.41
2018-03-31T13:53:09.169Z,6.39
2018-03-31T13:54:18.865Z,6.32
2018-03-31T13:55:28.574Z,6.39
2018-03-31T13:56:38.029Z,6.44
2018-03-31T13:57:47.730Z,6.43
2018-03-31T13:58:57.828Z,6.39
2018-03-31T14:00:07.598Z,6.41
2018-03-31T14:01:17.571Z,6.46
2018-03-31T14:02:27.546Z,6.38
2018-03-31T14:03:37.548Z,6.44
2018-03-31T14:04:47.505Z,6.35
2018-03-31T14:05:56.964Z,6.44
2018-03-31T14:07:06.449Z,6.39
2018-03-31T14:08:16.168Z,6.36
2018-03-31T14:09:25.881Z,6.39
2018-03-31T14:10:35.846Z,6.38
2018-03-31T14:11:45.555Z,6.41
2018-03-31T14:12:55.524Z,6.43
2018-03-31T14:14:05.228Z,6.41
2018-03-31T14:15:14.949Z,6.35
2018-03-31T14:16:24.660Z,6.38
2018-03-31T14:17:34.700Z,6.39
2018-03-31T14:18:44.685Z,6.44
2018-03-31T14:19:54.650Z,6.44
2018-03-31T14:21:04.618Z,6.36
2018-03-31T14:22:14.321Z,6.39
2018-03-31T14:23:24.036Z,6.38
2018-03-31T14:24:33.746Z,6.44
2018-03-31T14:25:43.468Z,6.44
2018-03-31T14:26:53.426Z,6.36
2018-03-31T14:28:02.883Z,6.44
2018-03-31T14:29:12.699Z,6.35
2018-03-31T14:30:22.657Z,6.49
2018-03-31T14:31:31.585Z,6.49
2018-03-31T14:32:41.305Z,6.5
2018-03-31T14:33:51.010Z,6.38
2018-03-31T14:35:00.718Z,6.47
2018-03-31T14:36:10.183Z,6.36
2018-03-31T14:37:19.640Z,6.53
2018-03-31T14:38:29.371Z,6.54
2018-03-31T14:39:39.160Z,6.53
2018-03-31T14:40:48.893Z,6.5
2018-03-31T14:41:58.615Z,6.56
2018-03-31T14:43:08.591Z,6.53
2018-03-31T14:44:18.307Z,6.53
2018-03-31T14:45:28.046Z,6.6
2018-03-31T14:46:38.015Z,6.54
2018-03-31T14:47:48.077Z,6.54
2018-03-31T14:48:58.047Z,6.53
2018-03-31T14:50:07.780Z,6.54
2018-03-31T14:51:17.779Z,6.57
2018-03-31T14:52:27.482Z,6.54
2018-03-31T14:53:37.532Z,6.53
2018-03-31T14:54:47.299Z,6.5
2018-03-31T14:55:57.279Z,6.59
2018-03-31T14:57:07.249Z,6.52
2018-03-31T14:58:17.238Z,6.53
2018-03-31T14:59:26.694Z,6.38
2018-03-31T15:00:36.402Z,6.32
2018-03-31T15:01:46.400Z,6.34
2018-03-31T15:02:56.386Z,6.32
2018-03-31T15:04:06.350Z,6.34
2018-03-31T15:05:16.048Z,6.28
2018-03-31T15:06:25.761Z,6.32
2018-03-31T15:07:35.218Z,6.26
2018-03-31T15:08:44.922Z,6.29
2018-03-31T15:09:54.122Z,6.34
2018-03-31T15:11:03.584Z,6.19
2018-03-31T15:12:13.296Z,6.34
2018-03-31T15:13:22.750Z,6.31
2018-03-31T15:14:32.718Z,6.29
2018-03-31T15:15:42.454Z,6.26
2018-03-31T15:16:52.157Z,6.29
2018-03-31T15:18:02.139Z,6.32
2018-03-31T15:19:12.122Z,6.2
2018-03-31T15:20:22.087Z,6.26
2018-03-31T15:21:31.801Z,6.28
2018-03-31T15:22:41.809Z,6.13
2018-03-31T15:23:51.528Z,6.15
2018-03-31T15:25:01.505Z,6.12
2018-03-31T15:26:11.227Z,6.19
2018-03-31T15:27:20.925Z,6.12
2018-03-31T15:28:31.126Z,6.12
2018-03-31T15:29:41.367Z,5.98
2018-03-31T15:30:51.350Z,5.98
2018-03-31T15:32:01.331Z,5.98
2018-03-31T15:33:11.288Z,6.1